createdAt,value
2022-11-06T00:01:16.634Z,100250.53
2022-11-06T00:03:43.827Z,100241.81
2022-11-06T00:06:13.755Z,100240.50
2022-11-06T00:08:40.734Z,100242.97
2022-11-06T00:11:14.964Z,100234.06
2022-11-06T00:13:45.014Z,100228.69
2022-11-06T00:16:13.698Z,100236.03
2022-11-06T00:18:42.185Z,100237.63
2022-11-06T00:21:10.819Z,100242.47
2022-11-06T00:23:39.033Z,100247.38
2022-11-06T00:26:07.658Z,100250.34
2022-11-06T00:28:35.413Z,100240.88
2022-11-06T00:31:05.697Z,100245.72
2022-11-06T00:33:33.197Z,100240.53
2022-11-06T00:36:02.673Z,100239.34
2022-11-06T00:38:29.396Z,100243.25
2022-11-06T00:40:56.211Z,100244.09
2022-11-06T00:43:23.164Z,100237.25
2022-11-06T00:45:50.137Z,100244.44
2022-11-06T00:48:18.417Z,100245.19
2022-11-06T00:50:45.200Z,100245.84
2022-11-06T00:53:11.913Z,100252.53
2022-11-06T00:55:38.869Z,100262.88
2022-11-06T00:58:05.583Z,100254.66
2022-11-06T01:00:32.299Z,100247.75
2022-11-06T01:02:59.144Z,100251.56
2022-11-06T01:05:27.563Z,100249.72
2022-11-06T01:07:54.333Z,100243.19
2022-11-06T01:10:21.296Z,100244.03
2022-11-06T01:12:48.782Z,100250.03
2022-11-06T01:15:15.952Z,100242.84
2022-11-06T01:17:46.261Z,100239.16
2022-11-06T01:20:13.639Z,100242.50
2022-11-06T01:22:45.017Z,100239.50
2022-11-06T01:25:12.165Z,100230.13
2022-11-06T01:27:38.878Z,100225.13
2022-11-06T01:30:07.967Z,100224.44
2022-11-06T01:32:34.716Z,100230.13
2022-11-06T01:35:01.683Z,100240.84
2022-11-06T01:37:28.465Z,100230.66
2022-11-06T01:39:56.553Z,100227.13
2022-11-06T01:42:23.254Z,100226.28
2022-11-06T01:45:25.409Z,100241.00
2022-11-06T01:47:52.371Z,100234.31
2022-11-06T01:50:19.826Z,100238.16
2022-11-06T01:52:50.250Z,100233.47
2022-11-06T01:55:25.375Z,100233.50
2022-11-06T01:57:55.098Z,100234.31
2022-11-06T02:00:21.945Z,100224.59
2022-11-06T02:02:51.147Z,100232.66
2022-11-06T02:05:18.289Z,100231.78
2022-11-06T02:07:45.876Z,100227.13
2022-11-06T02:10:13.259Z,100232.63
2022-11-06T02:12:54.467Z,100216.72
2022-11-06T02:15:36.730Z,100215.06
2022-11-06T02:18:24.101Z,100202.69
2022-11-06T02:21:19.343Z,100213.38
2022-11-06T02:24:13.290Z,100200.81
2022-11-06T02:27:04.845Z,100195.25
2022-11-06T02:29:42.106Z,100184.22
2022-11-06T02:32:17.378Z,100177.88
2022-11-06T02:34:48.650Z,100179.38
2022-11-06T02:37:21.317Z,100178.03
2022-11-06T02:39:53.024Z,100174.16
2022-11-06T02:42:26.096Z,100167.16
2022-11-06T02:44:57.141Z,100162.66
2022-11-06T02:47:29.063Z,100168.19
2022-11-06T02:50:04.912Z,100160.50
2022-11-06T02:52:40.004Z,100159.16
2022-11-06T02:55:14.115Z,100143.56
2022-11-06T02:57:49.891Z,100144.59
2022-11-06T03:00:18.039Z,100138.38
2022-11-06T03:02:53.518Z,100138.06
2022-11-06T03:05:30.911Z,100126.66
2022-11-06T03:08:10.065Z,100129.69
2022-11-06T03:10:46.308Z,100129.19
2022-11-06T03:13:22.092Z,100125.00
2022-11-06T03:16:02.772Z,100132.88
2022-11-06T03:18:39.003Z,100123.97
2022-11-06T03:21:14.640Z,100128.03
2022-11-06T03:23:50.338Z,100128.19
2022-11-06T03:26:24.891Z,100137.03
2022-11-06T03:29:00.182Z,100134.88
2022-11-06T03:31:33.656Z,100133.03
2022-11-06T03:34:08.212Z,100129.03
2022-11-06T03:36:42.521Z,100128.88
2022-11-06T03:39:19.258Z,100130.38
2022-11-06T03:41:53.959Z,100135.34
2022-11-06T03:44:28.029Z,100123.59
2022-11-06T03:47:08.881Z,100127.44
2022-11-06T03:49:41.207Z,100117.91
2022-11-06T03:52:17.372Z,100114.94
2022-11-06T03:54:52.717Z,100108.28
2022-11-06T03:57:27.155Z,100107.28
2022-11-06T04:00:03.750Z,100115.63
2022-11-06T04:02:45.255Z,100111.28
2022-11-06T04:05:20.555Z,100106.03
2022-11-06T04:07:55.020Z,100119.78
2022-11-06T04:10:22.254Z,100126.63
2022-11-06T04:12:52.307Z,100113.06
2022-11-06T04:15:22.791Z,100106.72
2022-11-06T04:17:49.562Z,100100.50
2022-11-06T04:20:22.176Z,100100.53
2022-11-06T04:23:01.321Z,100100.91
2022-11-06T04:25:51.875Z,100095.03
2022-11-06T04:28:36.206Z,100088.50
2022-11-06T04:31:18.194Z,100089.50
2022-11-06T04:33:57.124Z,100077.97
2022-11-06T04:36:37.408Z,100077.47
2022-11-06T04:39:16.070Z,100077.00
2022-11-06T04:41:56.285Z,100076.84
2022-11-06T04:44:31.604Z,100070.81
2022-11-06T04:47:08.594Z,100073.34
2022-11-06T04:49:40.484Z,100063.63
2022-11-06T04:52:14.387Z,100058.09
2022-11-06T04:54:42.158Z,100048.44
2022-11-06T04:57:09.016Z,100057.44
2022-11-06T04:59:36.833Z,100044.41
2022-11-06T05:02:06.675Z,100049.88
2022-11-06T05:04:34.041Z,100063.78
2022-11-06T05:07:00.837Z,100067.13
2022-11-06T05:09:27.553Z,100079.34
2022-11-06T05:11:54.355Z,100083.34
2022-11-06T05:14:21.147Z,100089.38
2022-11-06T05:16:48.141Z,100095.53
2022-11-06T05:19:16.399Z,100094.72
2022-11-06T05:21:43.774Z,100093.72
2022-11-06T05:24:10.606Z,100091.22
2022-11-06T05:26:37.803Z,100093.41
2022-11-06T05:29:04.781Z,100096.25
2022-11-06T05:31:31.822Z,100091.53
2022-11-06T05:33:59.597Z,100087.00
2022-11-06T05:36:28.119Z,100090.50
2022-11-06T05:38:54.841Z,100089.25
2022-11-06T05:41:21.812Z,100103.53
2022-11-06T05:43:48.695Z,100097.53
2022-11-06T05:46:42.836Z,100096.41
2022-11-06T05:49:02.712Z,100091.00
2022-11-06T05:51:30.779Z,100080.00
2022-11-06T05:53:57.748Z,100086.19
2022-11-06T05:56:24.479Z,100081.75
2022-11-06T05:58:51.165Z,100083.28
2022-11-06T06:01:17.922Z,100078.13
2022-11-06T06:03:44.791Z,100083.88
2022-11-06T06:06:11.601Z,100095.06
2022-11-06T06:08:39.836Z,100090.06
2022-11-06T06:11:07.499Z,100076.38
2022-11-06T06:13:36.027Z,100075.19
2022-11-06T06:16:03.714Z,100086.91
2022-11-06T06:18:31.027Z,100089.22
2022-11-06T06:20:58.028Z,100088.00
2022-11-06T06:23:24.883Z,100079.44
2022-11-06T06:25:54.093Z,100080.69
2022-11-06T06:28:20.835Z,100086.03
2022-11-06T06:30:47.981Z,100086.56
2022-11-06T06:33:14.674Z,100080.53
2022-11-06T06:35:41.636Z,100068.03
2022-11-06T06:38:08.496Z,100050.53
2022-11-06T06:40:35.234Z,100067.59
2022-11-06T06:43:03.575Z,100077.00
2022-11-06T06:45:30.421Z,100069.00
2022-11-06T06:48:02.679Z,100065.94
2022-11-06T06:50:29.585Z,100055.09
2022-11-06T06:52:56.973Z,100045.22
2022-11-06T06:55:24.514Z,100047.00
2022-11-06T06:57:56.982Z,100041.75
2022-11-06T07:00:26.416Z,100036.56
2022-11-06T07:02:53.186Z,100024.88
2022-11-06T07:05:20.739Z,100026.94
2022-11-06T07:07:47.828Z,100014.38
2022-11-06T07:10:14.860Z,100012.75
2022-11-06T07:12:41.697Z,100005.75
2022-11-06T07:15:10.322Z,99997.50
2022-11-06T07:17:42.141Z,99996.56
2022-11-06T07:20:12.251Z,99994.66
2022-11-06T07:22:39.358Z,100004.50
2022-11-06T07:25:07.015Z,99994.47
2022-11-06T07:32:23.008Z,99979.34
2022-11-06T07:34:51.306Z,99960.78
2022-11-06T07:37:22.269Z,99962.75
2022-11-06T07:39:49.066Z,99955.75
2022-11-06T07:42:16.192Z,99964.97
2022-11-06T07:44:56.259Z,99939.22
2022-11-06T07:47:23.440Z,99927.31
2022-11-06T07:49:51.823Z,99926.91
2022-11-06T07:52:19.177Z,99917.34
2022-11-06T07:54:45.917Z,99916.94
2022-11-06T07:57:12.827Z,99920.81
2022-11-06T07:59:41.351Z,99925.25
2022-11-06T08:02:11.735Z,99911.75
2022-11-06T08:04:39.232Z,99903.44
2022-11-06T08:07:07.464Z,99908.16
2022-11-06T08:09:34.490Z,99906.81
2022-11-06T08:12:02.214Z,99905.44
2022-11-06T08:14:54.188Z,99892.66
2022-11-06T08:17:19.221Z,99897.00
2022-11-06T08:19:46.303Z,99896.59
2022-11-06T08:22:35.501Z,99897.00
2022-11-06T08:25:04.609Z,99907.09
2022-11-06T08:27:31.911Z,99903.09
2022-11-06T08:30:00.072Z,99908.09
2022-11-06T08:32:28.186Z,99914.97
2022-11-06T08:34:54.876Z,99919.09
2022-11-06T08:37:21.814Z,99909.03
2022-11-06T08:40:13.671Z,99910.53
2022-11-06T08:42:40.970Z,99904.75
2022-11-06T08:48:14.926Z,99895.34
2022-11-06T08:50:49.388Z,99894.94
2022-11-06T08:53:17.263Z,99891.25
2022-11-06T08:55:46.097Z,99882.31
2022-11-06T08:58:13.537Z,99888.22
2022-11-06T09:00:40.854Z,99887.38
2022-11-06T09:03:16.004Z,99889.97
2022-11-06T09:05:46.657Z,99896.72
2022-11-06T09:08:19.366Z,99894.28
2022-11-06T09:10:58.658Z,99912.38
2022-11-06T09:13:28.149Z,99925.00
2022-11-06T09:15:54.988Z,99935.25
2022-11-06T09:18:21.768Z,99933.34
2022-11-06T09:20:48.606Z,99929.63
2022-11-06T09:23:15.736Z,99928.81
2022-11-06T09:25:42.987Z,99919.00
2022-11-06T09:28:11.364Z,99915.09
2022-11-06T09:30:38.166Z,99916.34
2022-11-06T09:33:09.192Z,99909.28
2022-11-06T09:35:39.096Z,99907.22
2022-11-06T09:38:11.693Z,99896.34
2022-11-06T09:40:47.332Z,99889.47
2022-11-06T09:44:03.591Z,99892.16
2022-11-06T09:46:24.552Z,99889.75
2022-11-06T09:49:01.035Z,99878.22
2022-11-06T09:51:39.173Z,99882.53
2022-11-06T09:54:19.904Z,99880.50
2022-11-06T09:56:54.367Z,99883.38
2022-11-06T09:59:23.161Z,99881.38
2022-11-06T10:01:54.960Z,99881.47
2022-11-06T10:04:40.635Z,99862.81
2022-11-06T10:07:24.795Z,99857.97
2022-11-06T10:09:51.551Z,99850.38
2022-11-06T10:12:34.210Z,99846.63
2022-11-06T10:15:20.243Z,99846.50
2022-11-06T10:18:00.854Z,99833.00
2022-11-06T10:20:34.989Z,99836.75
2022-11-06T10:23:05.698Z,99820.28
2022-11-06T10:25:50.977Z,99812.28
2022-11-06T10:28:51.995Z,99807.94
2022-11-06T10:31:36.785Z,99789.13
2022-11-06T10:34:13.427Z,99771.25
2022-11-06T10:36:50.177Z,99769.19
2022-11-06T10:39:23.165Z,99775.44
2022-11-06T10:41:56.840Z,99759.09
2022-11-06T10:44:33.518Z,99745.03
2022-11-06T10:47:11.214Z,99744.97
2022-11-06T10:49:46.885Z,99756.91
2022-11-06T10:52:48.506Z,99729.75
2022-11-06T10:55:45.361Z,99716.22
2022-11-06T10:58:17.461Z,99711.88
2022-11-06T11:00:44.717Z,99698.38
2022-11-06T11:03:47.351Z,99693.78
2022-11-06T11:06:42.423Z,99697.38
2022-11-06T11:09:33.452Z,99701.72
2022-11-06T11:12:01.147Z,99678.38
2022-11-06T11:14:31.539Z,99676.34
2022-11-06T11:17:01.537Z,99666.38
2022-11-06T11:19:38.046Z,99665.38
2022-11-06T11:22:18.382Z,99654.25
2022-11-06T11:25:01.649Z,99651.56
2022-11-06T11:27:32.073Z,99655.44
2022-11-06T11:30:04.382Z,99645.59
2022-11-06T12:20:52.175Z,99552.81
2022-11-06T12:23:27.481Z,99548.44
2022-11-06T12:26:05.327Z,99538.91
2022-11-06T12:28:37.253Z,99542.81
2022-11-06T12:31:17.655Z,99525.19
2022-11-06T12:34:05.555Z,99523.06
2022-11-06T12:36:46.370Z,99527.19
2022-11-06T12:39:22.341Z,99521.72
2022-11-06T12:41:54.892Z,99530.88
2022-11-06T12:44:22.204Z,99511.38
2022-11-06T12:47:00.594Z,99511.78
2022-11-06T12:50:04.030Z,99505.22
2022-11-06T12:52:56.105Z,99504.84
2022-11-06T12:55:31.828Z,99503.44
2022-11-06T12:58:22.129Z,99490.38
2022-11-06T13:01:06.083Z,99491.19
2022-11-06T13:04:13.596Z,99487.81
2022-11-06T13:07:15.617Z,99488.03
2022-11-06T13:10:33.237Z,99480.47
2022-11-06T13:13:25.751Z,99477.88
2022-11-06T13:16:03.143Z,99469.03
2022-11-06T13:18:35.937Z,99471.97
2022-11-06T13:21:14.484Z,99471.56
2022-11-06T13:23:49.532Z,99471.97
2022-11-06T13:26:29.331Z,99475.97
2022-11-06T13:29:02.557Z,99471.44
2022-11-06T13:31:40.018Z,99466.31
2022-11-06T13:34:17.066Z,99466.53
2022-11-06T13:36:45.499Z,99462.56
2022-11-06T13:39:22.299Z,99463.22
2022-11-06T13:41:49.045Z,99462.25
2022-11-06T13:44:17.620Z,99460.91
2022-11-06T13:46:58.491Z,99455.22
2022-11-06T13:49:37.778Z,99455.34
2022-11-06T13:52:16.798Z,99455.78
2022-11-06T13:55:07.470Z,99454.81
2022-11-06T13:58:20.133Z,99442.50
2022-11-06T14:01:11.183Z,99443.66
2022-11-06T14:04:23.697Z,99435.41
2022-11-06T14:06:55.216Z,99444.38
2022-11-06T14:09:27.787Z,99435.50
2022-11-06T14:12:02.334Z,99426.78
2022-11-06T14:14:37.642Z,99433.75
2022-11-06T14:17:20.101Z,99438.94
2022-11-06T14:20:05.244Z,99436.91
2022-11-06T14:22:47.582Z,99445.31
2022-11-06T14:25:59.149Z,99451.84
2022-11-06T14:28:35.063Z,99452.41
2022-11-06T14:31:23.736Z,99442.94
2022-11-06T14:34:02.007Z,99441.25
2022-11-06T14:36:35.876Z,99440.81
2022-11-06T14:39:13.276Z,99442.69
2022-11-06T14:42:01.936Z,99442.53
2022-11-06T14:44:46.140Z,99435.75
2022-11-06T14:47:31.617Z,99428.31
2022-11-06T14:50:25.819Z,99414.09
2022-11-06T14:52:59.159Z,99418.13
2022-11-06T14:55:31.764Z,99414.53
2022-11-06T14:58:14.617Z,99415.50
2022-11-06T15:00:52.532Z,99409.69
2022-11-06T15:03:37.758Z,99399.66
2022-11-06T15:06:34.364Z,99405.31
2022-11-06T15:09:05.598Z,99402.66
2022-11-06T15:11:58.014Z,99401.06
2022-11-06T15:14:55.557Z,99400.00
2022-11-06T15:17:35.822Z,99403.38
2022-11-06T15:20:29.490Z,99399.28
2022-11-06T15:23:07.047Z,99403.88
2022-11-06T15:25:37.182Z,99410.16
2022-11-06T15:28:11.394Z,99412.13
2022-11-06T15:30:49.904Z,99405.88
2022-11-06T15:33:28.972Z,99392.66
2022-11-06T15:36:04.436Z,99397.03
2022-11-06T15:38:38.915Z,99400.41
2022-11-06T15:42:10.714Z,99410.41
2022-11-06T15:45:20.030Z,99400.03
2022-11-06T15:48:00.348Z,99399.09
2022-11-06T15:50:35.733Z,99404.53
2022-11-06T15:53:22.180Z,99403.13
2022-11-06T15:55:56.824Z,99414.19
2022-11-06T15:58:34.894Z,99414.59
2022-11-06T16:01:07.637Z,99422.91
2022-11-06T16:04:15.559Z,99417.09
2022-11-06T16:06:47.438Z,99421.06
2022-11-06T16:09:19.932Z,99418.63
2022-11-06T16:11:51.069Z,99410.75
2022-11-06T16:14:19.094Z,99402.25
2022-11-06T16:16:48.793Z,99408.22
2022-11-06T16:19:30.510Z,99411.38
2022-11-06T16:22:05.256Z,99414.09
2022-11-06T16:24:43.486Z,99400.59
2022-11-06T16:27:12.976Z,99398.75
2022-11-06T16:29:58.790Z,99401.28
2022-11-06T16:32:40.954Z,99396.91
2022-11-06T16:35:30.489Z,99406.84
2022-11-06T16:38:42.895Z,99395.25
2022-11-06T16:41:15.729Z,99402.28
2022-11-06T16:43:43.657Z,99399.59
2022-11-06T16:46:12.156Z,99403.97
2022-11-06T16:48:40.448Z,99404.19
2022-11-06T16:51:33.063Z,99400.66
2022-11-06T16:54:02.794Z,99408.09
2022-11-06T16:56:36.386Z,99404.97
2022-11-06T16:59:08.986Z,99396.72
2022-11-06T17:01:42.854Z,99388.19
2022-11-06T17:04:20.883Z,99385.50
2022-11-06T17:10:23.210Z,99395.47
2022-11-06T17:13:14.462Z,99407.47
2022-11-06T17:15:52.795Z,99392.94
2022-11-06T17:21:29.977Z,99399.38
2022-11-06T17:24:31.286Z,99395.66
2022-11-06T17:26:55.344Z,99409.16
2022-11-06T17:29:26.661Z,99402.72
2022-11-06T17:31:54.055Z,99405.38
2022-11-06T17:34:23.585Z,99417.63
2022-11-06T17:36:50.621Z,99422.16
2022-11-06T17:39:17.672Z,99421.34
2022-11-06T17:41:44.923Z,99425.50
2022-11-06T17:44:14.672Z,99412.66
2022-11-06T17:46:47.519Z,99412.19
2022-11-06T17:49:18.077Z,99409.50
2022-11-06T17:51:46.361Z,99417.38
2022-11-06T17:54:15.490Z,99421.69
2022-11-06T22:23:05.689Z,99596.47
2022-11-06T22:25:32.944Z,99603.28
2022-11-06T22:27:59.940Z,99605.69
2022-11-06T22:30:30.415Z,99602.25
2022-11-06T22:32:58.735Z,99613.06
2022-11-06T22:35:28.550Z,99610.56
2022-11-06T22:37:55.613Z,99616.78
2022-11-06T22:40:24.070Z,99620.72
2022-11-06T22:42:51.752Z,99620.75
2022-11-06T22:45:18.978Z,99619.06
2022-11-06T22:47:48.807Z,99628.59
2022-11-06T22:50:19.112Z,99629.22
2022-11-06T22:52:46.343Z,99629.66
2022-11-06T22:55:13.657Z,99625.72
2022-11-06T22:57:42.230Z,99625.72
2022-11-06T23:00:11.107Z,99633.19
2022-11-06T23:02:38.021Z,99634.00
2022-11-06T23:05:06.159Z,99636.06
2022-11-06T23:07:32.970Z,99637.31
2022-11-06T23:09:59.756Z,99638.53
2022-11-06T23:12:26.582Z,99648.09
2022-11-06T23:14:54.923Z,99642.06
2022-11-06T23:17:21.788Z,99647.66
2022-11-06T23:19:48.722Z,99645.19
2022-11-06T23:22:15.825Z,99651.63
2022-11-06T23:24:44.526Z,99655.34
2022-11-06T23:27:11.867Z,99647.06
2022-11-06T23:29:39.740Z,99648.88
2022-11-06T23:32:08.141Z,99643.28
2022-11-06T23:34:35.705Z,99644.69
2022-11-06T23:37:03.401Z,99641.81
2022-11-06T23:39:30.573Z,99650.72
2022-11-06T23:41:57.983Z,99651.19
2022-11-06T23:44:25.565Z,99640.19
2022-11-06T23:46:53.983Z,99641.88
2022-11-06T23:49:24.330Z,99649.13
2022-11-06T23:51:51.743Z,99651.41
2022-11-06T23:54:19.236Z,99646.88
2022-11-06T23:56:46.912Z,99647.50
2022-11-06T23:59:20.555Z,99658.06
